createdAt,value
2018-04-14T00:01:05.075Z,12.38
2018-04-14T00:03:33.807Z,12.42
2018-04-14T00:06:02.171Z,12.36
2018-04-14T00:08:30.477Z,12.30
2018-04-14T00:10:58.835Z,12.25
2018-04-14T00:13:27.155Z,12.34
2018-04-14T00:15:56.282Z,12.37
2018-04-14T00:18:25.389Z,12.39
2018-04-14T00:20:53.767Z,12.42
2018-04-14T00:23:22.115Z,12.37
2018-04-14T00:25:50.468Z,12.37
2018-04-14T00:28:19.590Z,12.27
2018-04-14T00:30:47.914Z,12.15
2018-04-14T00:33:16.240Z,12.12
2018-04-14T00:35:44.984Z,12.23
2018-04-14T00:38:13.322Z,12.24
2018-04-14T00:40:41.675Z,12.34
2018-04-14T00:43:09.986Z,12.22
2018-04-14T00:45:38.346Z,12.17
2018-04-14T00:48:06.669Z,12.19
2018-04-14T00:50:35.020Z,12.19
2018-04-14T00:53:21.225Z,12.01
2018-04-14T00:55:49.974Z,12.00
2018-04-14T00:58:18.718Z,11.93
2018-04-14T01:00:47.097Z,11.93
2018-04-14T01:03:16.352Z,11.94
2018-04-14T01:05:44.682Z,11.91
2018-04-14T01:08:13.808Z,11.98
2018-04-14T01:10:42.186Z,11.99
2018-04-14T01:13:10.545Z,11.93
2018-04-14T01:15:39.641Z,11.79
2018-04-14T01:18:07.959Z,12.06
2018-04-14T01:20:36.322Z,11.95
2018-04-14T01:23:05.099Z,11.98
2018-04-14T01:25:33.455Z,11.95
2018-04-14T01:28:02.561Z,11.95
2018-04-14T01:30:31.707Z,12.00
2018-04-14T01:33:00.067Z,11.94
2018-04-14T01:35:28.444Z,11.92
2018-04-14T01:37:56.796Z,11.92
2018-04-14T01:40:25.891Z,11.88
2018-04-14T01:42:55.014Z,11.86
2018-04-14T01:45:23.438Z,11.88
2018-04-14T01:47:51.822Z,11.87
2018-04-14T01:50:20.194Z,11.82
2018-04-14T01:52:48.558Z,11.84
2018-04-14T01:55:16.902Z,11.72
2018-04-14T01:57:45.250Z,11.71
2018-04-14T02:00:14.378Z,11.73
2018-04-14T02:02:42.706Z,11.77
2018-04-14T02:05:11.083Z,11.76
2018-04-14T02:07:40.210Z,11.78
2018-04-14T02:10:08.577Z,11.76
2018-04-14T02:12:37.675Z,11.80
2018-04-14T02:15:06.797Z,11.84
2018-04-14T02:17:35.525Z,11.79
2018-04-14T02:20:03.886Z,11.83
2018-04-14T02:22:32.239Z,11.83
2018-04-14T02:25:00.574Z,11.83
2018-04-14T02:27:29.702Z,11.78
2018-04-14T02:29:58.020Z,11.78
2018-04-14T02:32:26.386Z,11.78
2018-04-14T02:34:54.717Z,11.84
2018-04-14T02:37:23.097Z,11.83
2018-04-14T02:39:52.221Z,11.82
2018-04-14T02:42:21.306Z,11.87
2018-04-14T02:44:49.638Z,11.82
2018-04-14T02:47:18.009Z,11.82
2018-04-14T02:49:46.354Z,11.87
2018-04-14T02:52:14.715Z,11.79
2018-04-14T02:54:43.045Z,11.75
2018-04-14T02:57:12.172Z,11.79
2018-04-14T02:59:40.499Z,11.84
2018-04-14T03:02:08.851Z,11.79
2018-04-14T03:04:37.191Z,11.76
2018-04-14T03:07:05.936Z,11.79
2018-04-14T03:09:34.258Z,11.80
2018-04-14T03:12:03.340Z,11.81
2018-04-14T03:14:31.687Z,11.83
2018-04-14T03:17:00.026Z,11.80
2018-04-14T03:19:28.409Z,11.80
2018-04-14T03:21:56.749Z,11.82
2018-04-14T03:24:25.123Z,11.83
2018-04-14T03:26:53.448Z,11.83
2018-04-14T03:29:21.813Z,11.88
2018-04-14T03:31:50.209Z,11.87
2018-04-14T03:34:18.565Z,11.88
2018-04-14T03:36:46.895Z,11.93
2018-04-14T03:39:15.252Z,11.94
2018-04-14T03:41:43.590Z,12.01
2018-04-14T03:44:12.684Z,12.01
2018-04-14T03:46:41.822Z,12.00
2018-04-14T03:49:10.145Z,12.05
2018-04-14T03:51:39.457Z,12.01
2018-04-14T03:54:08.084Z,11.93
2018-04-14T03:56:37.213Z,11.93
2018-04-14T03:59:05.571Z,11.87
2018-04-14T04:01:33.953Z,11.89
2018-04-14T04:04:02.282Z,11.84
2018-04-14T04:06:30.622Z,11.96
2018-04-14T04:08:58.991Z,11.95
2018-04-14T04:11:27.311Z,12.00
2018-04-14T04:17:02.861Z,11.98
2018-04-14T04:20:11.024Z,11.96
2018-04-14T04:22:57.003Z,11.98
2018-04-14T04:25:37.069Z,12.02
2018-04-14T04:28:05.441Z,11.99
2018-04-14T04:30:37.856Z,12.00
2018-04-14T04:33:06.355Z,12.02
2018-04-14T04:38:40.292Z,12.08
2018-04-14T04:41:12.844Z,12.11
2018-04-14T04:43:55.069Z,12.10
2018-04-14T04:46:23.453Z,12.12
2018-04-14T04:48:51.795Z,12.11
2018-04-14T04:51:20.137Z,11.99
2018-04-14T04:56:49.337Z,11.79
2018-04-14T04:59:19.450Z,11.82
2018-04-14T05:01:47.839Z,11.77
2018-04-14T05:04:16.224Z,11.83
2018-04-14T05:06:44.547Z,11.84
2018-04-14T05:09:12.899Z,11.81
2018-04-14T05:11:41.267Z,11.89
2018-04-14T05:14:09.645Z,11.89
2018-04-14T05:16:37.980Z,11.93
2018-04-14T05:19:07.113Z,12.02
2018-04-14T05:25:00.409Z,12.09
2018-04-14T05:27:28.757Z,12.03
2018-04-14T05:29:57.111Z,12.04
2018-04-14T05:32:25.833Z,12.12
2018-04-14T05:34:54.193Z,12.27
2018-04-14T05:37:22.517Z,12.35
2018-04-14T05:39:50.916Z,12.32
2018-04-14T05:42:20.044Z,12.51
2018-04-14T05:44:48.411Z,12.45
2018-04-14T05:47:16.721Z,12.52
2018-04-14T05:49:45.043Z,12.51
2018-04-14T05:52:14.181Z,12.59
2018-04-14T05:54:42.503Z,12.62
2018-04-14T05:57:10.838Z,12.58
2018-04-14T05:59:39.338Z,12.68
2018-04-14T06:02:07.688Z,12.79
2018-04-14T06:04:36.276Z,13.36
2018-04-14T06:07:04.620Z,13.54
2018-04-14T06:09:33.700Z,13.41
2018-04-14T06:12:02.108Z,13.00
2018-04-14T06:14:30.455Z,12.93
2018-04-14T06:16:58.824Z,13.08
2018-04-14T06:19:27.133Z,13.30
2018-04-14T06:21:57.161Z,13.44
2018-04-14T06:24:25.647Z,13.38
2018-04-14T06:26:54.736Z,13.48
2018-04-14T06:29:23.212Z,13.90
2018-04-14T06:31:51.542Z,13.93
2018-04-14T06:34:19.903Z,13.45
2018-04-14T06:36:48.259Z,13.10
2018-04-14T06:39:16.628Z,13.18
2018-04-14T06:41:45.077Z,13.51
2018-04-14T06:44:14.206Z,13.65
2018-04-14T06:46:42.587Z,13.93
2018-04-14T06:49:11.365Z,13.93
2018-04-14T06:51:39.746Z,13.94
2018-04-14T06:54:08.114Z,13.58
2018-04-14T06:56:37.246Z,13.49
2018-04-14T06:59:05.559Z,13.39
2018-04-14T07:01:33.922Z,13.47
2018-04-14T07:04:02.242Z,13.68
2018-04-14T07:06:31.452Z,14.03
2018-04-14T07:08:59.775Z,14.12
2018-04-14T07:11:28.120Z,14.58
2018-04-14T07:13:56.481Z,14.86
2018-04-14T07:16:24.796Z,15.06
2018-04-14T07:18:53.155Z,15.66
2018-04-14T07:21:21.472Z,16.07
2018-04-14T07:23:51.363Z,16.47
2018-04-14T07:26:19.693Z,16.32
2018-04-14T07:28:48.855Z,16.45
2018-04-14T07:31:17.184Z,16.81
2018-04-14T07:33:45.523Z,16.52
2018-04-14T07:36:14.077Z,16.25
2018-04-14T07:38:42.403Z,16.45
2018-04-14T07:41:11.919Z,16.02
2018-04-14T07:43:40.226Z,15.75
2018-04-14T07:46:08.639Z,16.08
2018-04-14T07:48:36.987Z,16.11
2018-04-14T07:51:05.409Z,16.43
2018-04-14T07:53:34.515Z,16.85
2018-04-14T07:56:04.023Z,17.27
2018-04-14T07:58:33.103Z,17.85
2018-04-14T08:01:02.611Z,17.79
2018-04-14T08:03:32.330Z,17.83
2018-04-14T08:06:01.418Z,17.60
2018-04-14T08:08:31.293Z,18.08
2018-04-14T08:11:00.583Z,17.88
2018-04-14T08:13:28.940Z,18.22
2018-04-14T08:15:57.340Z,17.91
2018-04-14T08:18:25.749Z,17.69
2018-04-14T08:20:54.103Z,17.52
2018-04-14T08:23:22.456Z,17.16
2018-04-14T08:25:50.821Z,17.03
2018-04-14T08:28:19.171Z,16.83
2018-04-14T08:30:48.283Z,16.62
2018-04-14T08:33:16.649Z,16.18
2018-04-14T08:35:45.742Z,16.52
2018-04-14T08:38:14.880Z,16.67
2018-04-14T08:40:43.258Z,16.82
2018-04-14T08:43:11.625Z,16.98
2018-04-14T08:45:39.960Z,16.90
2018-04-14T08:48:08.280Z,16.87
2018-04-14T08:50:36.660Z,16.82
2018-04-14T08:53:05.002Z,16.89
2018-04-14T08:55:34.093Z,16.74
2018-04-14T08:58:03.199Z,16.86
2018-04-14T09:00:32.297Z,16.95
2018-04-14T09:03:00.688Z,17.00
2018-04-14T09:05:29.037Z,17.17
2018-04-14T09:07:58.146Z,17.59
2018-04-14T09:10:26.495Z,17.68
2018-04-14T09:12:54.826Z,17.60
2018-04-14T09:15:23.211Z,17.42
2018-04-14T09:17:51.547Z,17.53
2018-04-14T09:20:21.043Z,17.18
2018-04-14T09:22:49.400Z,17.31
2018-04-14T09:25:17.774Z,17.41
2018-04-14T09:27:46.091Z,17.42
2018-04-14T09:30:15.243Z,17.47
2018-04-14T09:32:43.590Z,17.38
2018-04-14T09:35:11.969Z,17.36
2018-04-14T09:37:40.308Z,17.28
2018-04-14T09:40:09.452Z,17.35
2018-04-14T09:42:37.784Z,17.47
2018-04-14T09:45:06.899Z,17.64
2018-04-14T09:47:36.007Z,17.69
2018-04-14T09:50:04.355Z,17.75
2018-04-14T09:52:33.767Z,17.88
2018-04-14T09:55:02.858Z,17.94
2018-04-14T09:57:31.991Z,18.10
2018-04-14T10:00:00.312Z,18.14
2018-04-14T10:02:46.298Z,18.12
2018-04-14T10:05:14.670Z,18.14
2018-04-14T10:07:43.007Z,18.13
2018-04-14T10:10:11.405Z,18.27
2018-04-14T10:12:39.742Z,18.24
2018-04-14T10:15:08.085Z,18.21
2018-04-14T10:17:36.461Z,18.42
2018-04-14T10:20:04.819Z,18.62
2018-04-14T10:22:33.178Z,19.00
2018-04-14T10:25:01.559Z,19.25
2018-04-14T10:27:29.947Z,19.38
2018-04-14T10:29:58.268Z,19.34
2018-04-14T10:32:26.621Z,19.48
2018-04-14T10:34:54.989Z,19.65
2018-04-14T10:37:23.409Z,20.17
2018-04-14T10:39:52.495Z,20.40
2018-04-14T10:42:20.864Z,21.00
2018-04-14T10:44:49.246Z,20.99
2018-04-14T10:47:18.349Z,20.83
2018-04-14T10:49:47.533Z,20.65
2018-04-14T10:52:15.911Z,20.32
2018-04-14T10:54:44.330Z,20.44
2018-04-14T10:57:12.707Z,20.06
2018-04-14T10:59:41.111Z,20.01
2018-04-14T11:02:09.472Z,20.00
2018-04-14T11:04:37.861Z,20.05
2018-04-14T11:07:06.241Z,19.75
2018-04-14T11:09:34.571Z,19.88
2018-04-14T11:12:02.924Z,20.36
2018-04-14T11:14:31.303Z,20.75
2018-04-14T11:16:59.739Z,20.35
2018-04-14T11:19:29.260Z,20.19
2018-04-14T11:21:57.622Z,20.06
2018-04-14T11:24:26.757Z,20.17
2018-04-14T11:26:55.209Z,20.53
2018-04-14T11:29:23.534Z,20.92
2018-04-14T11:31:51.872Z,20.72
2018-04-14T11:34:20.293Z,20.52
2018-04-14T11:36:48.670Z,20.31
2018-04-14T11:39:30.522Z,20.39
2018-04-14T11:41:58.890Z,20.49
2018-04-14T11:44:28.534Z,20.62
2018-04-14T11:46:56.894Z,20.45
2018-04-14T11:49:25.229Z,20.29
2018-04-14T11:51:53.885Z,20.69
2018-04-14T11:54:27.567Z,21.11
2018-04-14T11:57:00.096Z,21.04
2018-04-14T11:59:31.798Z,20.71
2018-04-14T12:02:00.182Z,20.42
2018-04-14T12:04:28.542Z,20.29
2018-04-14T12:06:57.720Z,20.69
2018-04-14T12:09:26.065Z,20.87
2018-04-14T12:11:55.209Z,20.95
2018-04-14T12:14:23.651Z,20.98
2018-04-14T12:16:52.478Z,20.80
2018-04-14T12:19:21.750Z,20.65
2018-04-14T12:21:50.291Z,20.50
2018-04-14T12:24:18.766Z,20.43
2018-04-14T12:26:47.401Z,20.42
2018-04-14T12:29:15.883Z,20.54
2018-04-14T12:31:44.361Z,20.59
2018-04-14T12:34:12.716Z,20.57
2018-04-14T12:36:41.825Z,20.45
2018-04-14T12:39:10.979Z,20.48
2018-04-14T12:41:39.300Z,20.66
2018-04-14T12:44:07.862Z,20.76
2018-04-14T12:46:36.224Z,21.15
2018-04-14T12:49:04.756Z,20.96
2018-04-14T12:51:33.722Z,21.01
2018-04-14T12:54:02.809Z,20.99
2018-04-14T12:56:32.031Z,21.53
2018-04-14T12:59:00.538Z,21.34
2018-04-14T13:01:28.901Z,21.24
2018-04-14T13:03:58.261Z,21.12
2018-04-14T13:06:26.630Z,21.05
2018-04-14T13:08:54.956Z,21.55
2018-04-14T13:11:23.533Z,21.27
2018-04-14T13:13:51.889Z,21.16
2018-04-14T13:16:21.057Z,21.42
2018-04-14T13:18:49.414Z,22.30
2018-04-14T13:21:17.837Z,21.83
2018-04-14T13:23:47.209Z,21.43
2018-04-14T13:26:16.344Z,21.25
2018-04-14T13:28:45.452Z,21.19
2018-04-14T13:31:13.829Z,21.32
2018-04-14T13:33:42.147Z,21.20
2018-04-14T13:36:10.665Z,21.01
2018-04-14T13:38:39.275Z,21.00
2018-04-14T13:41:07.935Z,21.06
2018-04-14T13:43:38.701Z,20.98
2018-04-14T13:46:07.063Z,20.81
2018-04-14T13:48:36.164Z,20.84
2018-04-14T13:51:04.545Z,20.96
2018-04-14T13:53:33.629Z,20.97
2018-04-14T13:56:03.444Z,20.90
2018-04-14T13:58:31.766Z,21.15
2018-04-14T14:01:00.164Z,21.18
2018-04-14T14:03:29.234Z,21.49
2018-04-14T14:05:57.558Z,22.07
2018-04-14T14:08:26.679Z,21.84
2018-04-14T14:10:55.021Z,21.47
2018-04-14T14:13:23.376Z,21.30
2018-04-14T14:15:53.264Z,21.39
2018-04-14T14:18:21.576Z,21.33
2018-04-14T14:20:49.940Z,21.06
2018-04-14T14:23:18.320Z,20.75
2018-04-14T14:25:46.652Z,20.52
2018-04-14T14:28:14.976Z,20.43
2018-04-14T14:30:43.339Z,20.48
2018-04-14T14:33:11.663Z,20.77
2018-04-14T14:35:40.746Z,20.96
2018-04-14T14:38:09.911Z,20.93
2018-04-14T14:40:38.291Z,20.94
2018-04-14T14:43:06.831Z,21.07
2018-04-14T14:45:35.353Z,21.36
2018-04-14T14:48:03.728Z,21.82
2018-04-14T14:50:32.102Z,22.31
2018-04-14T14:53:00.432Z,22.67
2018-04-14T14:55:29.570Z,22.81
2018-04-14T14:57:57.944Z,22.50
2018-04-14T15:00:26.342Z,22.41
2018-04-14T15:02:54.698Z,22.29
2018-04-14T15:05:23.136Z,22.33
2018-04-14T15:07:52.288Z,22.39
2018-04-14T15:10:20.642Z,22.25
2018-04-14T15:12:48.963Z,22.04
2018-04-14T15:15:17.419Z,22.20
2018-04-14T15:17:45.780Z,21.97
2018-04-14T15:20:14.147Z,21.76
2018-04-14T15:22:42.527Z,21.88
2018-04-14T15:25:10.847Z,21.77
2018-04-14T15:27:39.257Z,21.64
2018-04-14T15:30:08.368Z,21.50
2018-04-14T15:32:36.842Z,21.14
2018-04-14T15:35:05.979Z,21.05
2018-04-14T15:37:34.354Z,20.84
2018-04-14T15:40:02.712Z,20.77
2018-04-14T15:42:31.073Z,20.80
2018-04-14T15:45:00.192Z,20.86
2018-04-14T15:47:28.540Z,20.75
2018-04-14T15:49:57.733Z,20.69
2018-04-14T15:52:27.093Z,20.68
2018-04-14T15:54:55.459Z,20.48
2018-04-14T15:57:23.829Z,20.31
2018-04-14T15:59:52.235Z,20.35
2018-04-14T16:02:20.612Z,20.31
2018-04-14T16:04:49.393Z,20.18
2018-04-14T16:07:17.796Z,20.09
2018-04-14T16:09:46.156Z,20.02
2018-04-14T16:12:14.493Z,19.86
2018-04-14T16:14:42.815Z,19.76
2018-04-14T16:17:11.201Z,19.80
2018-04-14T16:19:39.533Z,19.79
2018-04-14T16:22:07.888Z,19.88
2018-04-14T16:24:37.817Z,19.81
2018-04-14T16:27:06.186Z,19.68
2018-04-14T16:29:36.002Z,19.62
2018-04-14T16:32:05.124Z,19.58
2018-04-14T16:34:33.467Z,19.50
2018-04-14T16:37:02.568Z,19.45
2018-04-14T16:39:31.811Z,19.44
2018-04-14T16:42:00.151Z,19.34
2018-04-14T16:44:28.485Z,19.25
2018-04-14T16:46:56.870Z,19.14
2018-04-14T16:49:25.289Z,19.04
2018-04-14T16:51:53.659Z,18.89
2018-04-14T16:54:22.026Z,18.75
2018-04-14T16:56:51.145Z,18.69
2018-04-14T16:59:19.502Z,18.53
2018-04-14T17:01:49.119Z,18.45
2018-04-14T17:04:17.549Z,18.36
2018-04-14T17:06:47.069Z,18.51
2018-04-14T17:09:15.423Z,18.48
2018-04-14T17:11:43.722Z,18.40
2018-04-14T17:14:12.501Z,18.42
2018-04-14T17:16:40.863Z,18.39
2018-04-14T17:19:09.273Z,18.35
2018-04-14T17:21:37.646Z,18.28
2018-04-14T17:24:07.614Z,18.10
2018-04-14T17:26:37.501Z,17.90
2018-04-14T17:29:09.865Z,17.73
2018-04-14T17:31:39.128Z,17.59
2018-04-14T17:34:07.604Z,17.48
2018-04-14T17:36:37.709Z,17.42
2018-04-14T17:39:06.994Z,17.34
2018-04-14T17:41:35.410Z,17.34
2018-04-14T17:44:03.908Z,17.20
2018-04-14T17:46:32.719Z,17.09
2018-04-14T17:49:01.167Z,16.92
2018-04-14T17:51:30.415Z,16.78
2018-04-14T17:53:59.552Z,16.64
2018-04-14T17:56:27.912Z,16.43
2018-04-14T17:58:57.834Z,16.26
2018-04-14T18:01:26.371Z,16.08
2018-04-14T18:03:54.884Z,15.92
2018-04-14T18:06:23.850Z,15.78
2018-04-14T18:08:52.222Z,15.79
2018-04-14T18:11:21.503Z,15.71
2018-04-14T18:13:50.275Z,15.70
2018-04-14T18:16:18.645Z,15.72
2018-04-14T18:18:48.103Z,15.58
2018-04-14T18:21:18.762Z,15.41
2018-04-14T18:23:47.148Z,15.24
2018-04-14T18:26:15.575Z,15.21
2018-04-14T18:28:44.666Z,15.18
2018-04-14T18:31:14.754Z,15.17
2018-04-14T18:33:43.114Z,15.07
2018-04-14T18:36:11.514Z,14.99
2018-04-14T18:38:39.847Z,15.00
2018-04-14T18:41:08.225Z,14.93
2018-04-14T18:43:36.620Z,14.97
2018-04-14T18:46:05.062Z,14.88
2018-04-14T18:48:33.747Z,14.83
2018-04-14T18:51:02.970Z,14.80
2018-04-14T18:53:31.851Z,14.74
2018-04-14T18:56:00.952Z,14.67
2018-04-14T18:58:29.736Z,14.62
2018-04-14T19:01:11.784Z,14.59
2018-04-14T19:03:40.174Z,14.82
2018-04-14T19:06:09.441Z,14.74
2018-04-14T19:08:38.197Z,14.62
2018-04-14T19:11:07.309Z,14.53
2018-04-14T19:13:37.278Z,14.44
2018-04-14T19:16:06.441Z,14.41
2018-04-14T19:18:35.852Z,14.34
2018-04-14T19:21:05.200Z,14.30
2018-04-14T19:23:33.925Z,14.34
2018-04-14T19:26:03.058Z,14.45
2018-04-14T19:28:32.180Z,14.38
2018-04-14T19:31:00.562Z,14.21
2018-04-14T19:33:29.290Z,14.18
2018-04-14T19:35:57.600Z,14.21
2018-04-14T19:38:27.550Z,14.27
2018-04-14T19:40:55.906Z,14.31
2018-04-14T19:43:25.782Z,14.30
2018-04-14T19:45:54.520Z,14.28
2018-04-14T19:48:23.665Z,14.25
2018-04-14T19:50:52.017Z,14.28
2018-04-14T19:53:20.372Z,14.25
2018-04-14T19:55:48.713Z,14.30
2018-04-14T19:58:17.874Z,14.37
2018-04-14T20:00:46.185Z,14.46
2018-04-14T20:03:14.555Z,14.53
2018-04-14T20:05:42.935Z,14.58
2018-04-14T20:08:11.308Z,14.66
2018-04-14T20:10:39.714Z,14.74
2018-04-14T20:13:08.862Z,14.78
2018-04-14T20:15:37.180Z,14.78
2018-04-14T20:18:05.976Z,14.85
2018-04-14T20:20:34.330Z,14.84
2018-04-14T20:23:02.702Z,14.79
2018-04-14T20:25:31.041Z,14.72
2018-04-14T20:27:59.413Z,14.66
2018-04-14T20:30:27.746Z,14.62
2018-04-14T20:32:56.094Z,14.57
2018-04-14T20:35:24.877Z,14.57
2018-04-14T20:37:53.226Z,14.63
2018-04-14T20:40:21.573Z,14.55
2018-04-14T20:42:50.693Z,14.36
2018-04-14T20:45:19.409Z,14.18
2018-04-14T20:47:47.801Z,14.03
2018-04-14T20:50:16.135Z,13.96
2018-04-14T20:52:45.847Z,13.92
2018-04-14T20:55:14.276Z,13.89
2018-04-14T20:57:42.661Z,13.92
2018-04-14T21:00:11.047Z,13.94
2018-04-14T21:02:40.931Z,13.91
2018-04-14T21:05:10.143Z,13.83
2018-04-14T21:07:38.724Z,13.73
2018-04-14T21:10:07.089Z,13.64
2018-04-14T21:12:35.440Z,13.53
2018-04-14T21:15:03.854Z,13.45
2018-04-14T21:17:32.195Z,13.51
2018-04-14T21:20:00.680Z,13.40
2018-04-14T21:22:29.047Z,13.33
2018-04-14T21:24:57.427Z,13.24
2018-04-14T21:27:26.184Z,13.10
2018-04-14T21:29:55.289Z,13.07
2018-04-14T21:32:25.171Z,12.99
2018-04-14T21:34:54.308Z,12.91
2018-04-14T21:37:23.523Z,12.82
2018-04-14T21:39:52.095Z,12.79
2018-04-14T21:42:20.500Z,12.80
2018-04-14T21:44:48.936Z,12.73
2018-04-14T21:47:18.045Z,12.68
2018-04-14T21:49:46.432Z,12.64
2018-04-14T21:52:14.761Z,12.72
2018-04-14T21:54:43.139Z,12.66
2018-04-14T21:57:11.497Z,12.70
2018-04-14T21:59:39.868Z,12.61
2018-04-14T22:02:08.188Z,12.65
2018-04-14T22:04:36.534Z,12.53
2018-04-14T22:07:04.848Z,12.48
2018-04-14T22:09:33.972Z,12.46
2018-04-14T22:12:02.340Z,12.45
2018-04-14T22:14:33.841Z,12.44
2018-04-14T22:17:02.213Z,12.45
2018-04-14T22:19:30.548Z,12.44
2018-04-14T22:21:58.901Z,12.38
2018-04-14T22:24:27.249Z,12.33
2018-04-14T22:26:55.660Z,12.31
2018-04-14T22:29:23.999Z,12.23
2018-04-14T22:31:52.357Z,12.20
2018-04-14T22:34:20.688Z,12.26
2018-04-14T22:36:49.068Z,12.24
2018-04-14T22:39:17.397Z,12.17
2018-04-14T22:41:45.722Z,12.17
2018-04-14T22:44:14.865Z,12.24
2018-04-14T22:46:43.195Z,12.18
2018-04-14T22:49:11.508Z,12.07
2018-04-14T22:51:39.921Z,12.02
2018-04-14T22:54:08.293Z,12.00
2018-04-14T22:56:36.624Z,11.99
2018-04-14T22:59:05.699Z,12.02
2018-04-14T23:01:34.056Z,12.04
2018-04-14T23:04:02.789Z,12.06
2018-04-14T23:06:31.149Z,12.08
2018-04-14T23:09:00.629Z,12.10
2018-04-14T23:11:28.967Z,12.14
2018-04-14T23:13:57.731Z,12.17
2018-04-14T23:16:26.097Z,12.14
2018-04-14T23:18:55.193Z,12.07
2018-04-14T23:21:24.332Z,11.93
2018-04-14T23:23:53.461Z,11.76
2018-04-14T23:26:21.794Z,11.59
2018-04-14T23:28:50.141Z,11.47
2018-04-14T23:31:19.286Z,11.38
2018-04-14T23:33:47.612Z,11.26
2018-04-14T23:36:16.754Z,11.14
2018-04-14T23:38:45.121Z,11.08
2018-04-14T23:41:13.465Z,10.99
2018-04-14T23:43:42.569Z,10.90
2018-04-14T23:46:11.687Z,10.83
2018-04-14T23:48:40.025Z,10.87
2018-04-14T23:51:09.161Z,10.94
2018-04-14T23:53:37.498Z,11.02
2018-04-14T23:56:05.889Z,11.09
2018-04-14T23:58:34.993Z,11.09
